Time;durP1;ratioP1;P1;durP2;ratioP2;P2;SDS_P1;SDS_P2;PMS_P1;PMS_P2;Temp;Humidity;BMP_temperature;BMP_pressure;BME280_temperature;BME280_humidity;BME280_pressure;Samples;Min_cycle;Max_cycle;Signal;HPM_P1;HPM_P2
2021/04/18 00:01:05;;;;;;;;;;;;;;;19.15;67.62;100927.19;5043639;28;1457;-56
2021/04/18 00:03:31;;;;;;;;;;;;;;;19.10;67.27;100925.88;5048104;28;1749;-59
2021/04/18 00:05:57;;;;;;;;;;;;;;;19.16;67.52;100928.03;5052768;28;1902;-56
2021/04/18 00:08:24;;;;;;;;;;;;;;;19.10;67.63;100910.69;5046358;28;1652;-56
2021/04/18 00:10:50;;;;;;;;;;;;;;;19.10;67.63;100917.84;5044508;28;1292;-57
2021/04/18 00:13:18;;;;;;;;;;;;;;;19.10;67.58;100928.56;5052933;28;1393;-56
2021/04/18 00:15:44;;;;;;;;;;;;;;;19.05;67.28;100927.13;5045932;28;1596;-58
2021/04/18 00:18:10;;;;;;;;;;;;;;;19.04;67.56;100925.47;5044912;28;1593;-59
2021/04/18 00:20:36;;;;;;;;;;;;;;;19.05;67.89;100918.25;5050572;28;1433;-57
2021/04/18 00:23:02;;;;;;;;;;;;;;;19.03;67.74;100920.22;5044252;28;1301;-59
2021/04/18 00:25:29;;;;;;;;;;;;;;;19.01;68.52;100920.34;5044589;28;1909;-56
2021/04/18 00:27:55;;;;;;;;;;;;;;;19.03;68.07;100922.91;5053096;28;1648;-56
2021/04/18 00:30:22;;;;;;;;;;;;;;;19.00;68.26;100912.44;5049414;28;1430;-56
2021/04/18 00:32:48;;;;;;;;;;;;;;;19.02;67.89;100919.38;5046701;28;1088;-59
2021/04/18 00:35:15;;;;;;;;;;;;;;;18.97;67.82;100908.19;5046706;28;1532;-56
2021/04/18 00:37:41;;;;;;;;;;;;;;;18.98;67.91;100898.31;5045364;28;1491;-59
2021/04/18 00:40:09;;;;;;;;;;;;;;;18.99;67.41;100905.38;5048947;28;1475;-59
2021/04/18 00:42:36;;;;;;;;;;;;;;;18.98;67.92;100891.16;5054872;28;1497;-59
2021/04/18 00:45:02;;;;;;;;;;;;;;;18.98;68.00;100903.66;5042880;28;1991;-59
2021/04/18 00:47:31;;;;;;;;;;;;;;;18.98;67.94;100896.50;5048191;28;1731;-59
2021/04/18 00:49:57;;;;;;;;;;;;;;;18.97;68.06;100910.03;5048394;28;1782;-56
2021/04/18 00:52:23;;;;;;;;;;;;;;;18.98;67.91;100903.66;5041353;28;1581;-59
2021/04/18 00:54:49;;;;;;;;;;;;;;;18.98;67.93;100891.16;5044794;28;1441;-59
2021/04/18 00:57:15;;;;;;;;;;;;;;;18.94;67.77;100886.16;5053430;28;1469;-56
2021/04/18 00:59:43;;;;;;;;;;;;;;;18.97;67.62;100886.75;5042965;28;1492;-59
2021/04/18 01:02:09;;;;;;;;;;;;;;;18.96;67.61;100901.16;5044469;28;1593;-59
2021/04/18 01:04:35;;;;;;;;;;;;;;;18.99;67.53;100900.03;5044535;28;1906;-59
2021/04/18 01:07:01;;;;;;;;;;;;;;;19.00;67.60;100901.72;5044504;28;2010;-56
2021/04/18 01:09:28;;;;;;;;;;;;;;;18.98;67.36;100907.22;5050275;28;1575;-57
2021/04/18 01:11:54;;;;;;;;;;;;;;;18.99;67.45;100897.34;5052303;28;1504;-56
2021/04/18 01:14:20;;;;;;;;;;;;;;;18.98;67.40;100891.16;5045645;28;1599;-59
2021/04/18 01:16:47;;;;;;;;;;;;;;;18.99;67.61;100882.09;5044570;28;1588;-57
2021/04/18 01:19:13;;;;;;;;;;;;;;;19.01;67.39;100887.34;5044383;28;1644;-56
2021/04/18 01:21:40;;;;;;;;;;;;;;;18.98;67.04;100888.47;5043901;28;1401;-59
2021/04/18 01:24:06;;;;;;;;;;;;;;;18.97;67.60;100877.88;5041270;28;1971;-56
2021/04/18 01:26:33;;;;;;;;;;;;;;;18.97;67.12;100868.00;5052268;28;1338;-59
2021/04/18 01:29:00;;;;;;;;;;;;;;;18.93;67.30;100874.59;5048153;28;1559;-56
2021/04/18 01:31:26;;;;;;;;;;;;;;;18.95;67.17;100875.31;5045987;28;1600;-59
2021/04/18 01:33:52;;;;;;;;;;;;;;;18.93;67.38;100861.19;5041136;28;1991;-56
2021/04/18 01:36:18;;;;;;;;;;;;;;;18.93;67.48;100879.97;5045197;28;1593;-59
2021/04/18 01:38:45;;;;;;;;;;;;;;;18.96;67.41;100876.16;5042892;28;1624;-56
2021/04/18 01:41:10;;;;;;;;;;;;;;;18.93;67.48;100873.75;5053837;28;1513;-59
2021/04/18 01:43:39;;;;;;;;;;;;;;;18.92;67.53;100893.47;5048269;28;1747;-59
2021/04/18 01:46:05;;;;;;;;;;;;;;;18.90;67.57;100869.53;5045527;28;1975;-59
2021/04/18 01:48:31;;;;;;;;;;;;;;;18.91;67.49;100863.16;5045323;28;1589;-59
2021/04/18 01:50:57;;;;;;;;;;;;;;;18.93;67.55;100871.91;5043654;28;1471;-56
2021/04/18 01:53:23;;;;;;;;;;;;;;;18.87;67.76;100869.78;5043994;28;1057;-56
2021/04/18 01:55:50;;;;;;;;;;;;;;;18.92;67.86;100864.00;5044606;28;1774;-56
2021/04/18 01:58:15;;;;;;;;;;;;;;;18.89;67.66;100865.13;5049666;28;1445;-56
2021/04/18 02:03:09;;;;;;;;;;;;;;;18.92;68.03;100862.19;5074755;28;1613;-46
2021/04/18 02:05:35;;;;;;;;;;;;;;;18.94;67.99;100870.09;5076395;28;2004;-47
2021/04/18 02:08:01;;;;;;;;;;;;;;;18.94;68.30;100860.25;5075931;28;1838;-47
2021/04/18 02:10:27;;;;;;;;;;;;;;;18.83;67.79;100863.81;5081473;22;3754;-59
2021/04/18 02:12:54;;;;;;;;;;;;;;;18.90;67.66;100857.94;5008046;28;1402;-60
2021/04/18 02:15:20;;;;;;;;;;;;;;;18.92;67.75;100848.81;5005627;28;985;-56
2021/04/18 02:17:46;;;;;;;;;;;;;;;18.88;68.05;100844.69;5015696;28;1730;-56
2021/04/18 02:20:16;;;;;;;;;;;;;;;18.86;67.86;100854.66;5014585;28;1482;-56
2021/04/18 02:22:42;;;;;;;;;;;;;;;18.88;67.53;100833.97;5007062;28;1575;-59
2021/04/18 02:25:08;;;;;;;;;;;;;;;18.87;67.29;100834.94;5010651;28;1988;-59
2021/04/18 02:27:34;;;;;;;;;;;;;;;18.92;67.01;100846.13;5014732;28;1467;-59
2021/04/18 02:30:01;;;;;;;;;;;;;;;18.92;67.34;100856.84;5006094;28;1765;-59
2021/04/18 02:32:27;;;;;;;;;;;;;;;18.87;67.34;100837.63;5004085;28;1792;-59
2021/04/18 02:34:53;;;;;;;;;;;;;;;18.88;67.24;100852.72;5011007;28;1725;-56
2021/04/18 02:37:19;;;;;;;;;;;;;;;18.88;67.10;100852.72;5007667;28;1587;-56
2021/04/18 02:39:45;;;;;;;;;;;;;;;18.90;67.89;100864.16;5006480;28;1637;-60
2021/04/18 02:42:12;;;;;;;;;;;;;;;18.91;67.28;100865.84;5011102;28;1553;-59
2021/04/18 02:44:38;;;;;;;;;;;;;;;18.91;67.25;100881.09;5004914;28;1906;-59
2021/04/18 02:47:05;;;;;;;;;;;;;;;18.89;67.22;100862.44;5006407;28;1598;-59
2021/04/18 02:49:31;;;;;;;;;;;;;;;18.87;67.21;100865.25;5012422;28;1582;-59
2021/04/18 02:51:57;;;;;;;;;;;;;;;18.86;67.19;100850.19;5009891;28;1387;-56
2021/04/18 02:54:24;;;;;;;;;;;;;;;18.86;67.24;100865.38;5010887;28;1348;-56
2021/04/18 02:56:50;;;;;;;;;;;;;;;18.84;66.98;100859.31;5010097;28;1518;-60
2021/04/18 02:59:16;;;;;;;;;;;;;;;18.83;67.35;100842.38;5015102;28;1522;-60
2021/04/18 03:01:42;;;;;;;;;;;;;;;18.84;67.42;100840.56;5017748;28;1622;-56
2021/04/18 03:04:09;;;;;;;;;;;;;;;18.78;67.30;100844.59;5025569;28;1894;-56
2021/04/18 03:06:35;;;;;;;;;;;;;;;18.81;67.55;100838.16;5024119;28;1360;-56
2021/04/18 03:09:01;;;;;;;;;;;;;;;18.80;67.57;100841.78;5027070;28;1451;-56
2021/04/18 03:11:28;;;;;;;;;;;;;;;18.80;67.37;100839.13;5029769;28;1315;-56
2021/04/18 03:13:54;;;;;;;;;;;;;;;18.76;67.38;100840.34;5030295;28;1716;-60
2021/04/18 03:16:20;;;;;;;;;;;;;;;18.78;67.27;100843.72;5025002;28;1573;-59
2021/04/18 03:18:46;;;;;;;;;;;;;;;18.82;67.46;100850.56;5023406;28;1570;-56
2021/04/18 03:21:13;;;;;;;;;;;;;;;18.75;67.52;100836.81;5027063;28;1451;-59
2021/04/18 03:23:39;;;;;;;;;;;;;;;18.77;67.45;100817.94;5033965;28;1576;-56
2021/04/18 03:26:05;;;;;;;;;;;;;;;18.74;67.45;100815.50;5035342;28;1980;-56
2021/04/18 03:28:32;;;;;;;;;;;;;;;18.77;67.41;100809.91;5031730;28;1732;-60
2021/04/18 03:30:58;;;;;;;;;;;;;;;18.73;67.34;100811.16;5022747;28;1570;-56
2021/04/18 03:33:24;;;;;;;;;;;;;;;18.71;67.51;100800.56;5032063;28;1562;-59
2021/04/18 03:35:50;;;;;;;;;;;;;;;18.72;67.49;100813.00;5024690;28;1624;-57
2021/04/18 03:38:17;;;;;;;;;;;;;;;18.74;67.48;100807.47;5026533;28;1078;-59
2021/04/18 03:40:44;;;;;;;;;;;;;;;18.73;67.41;100808.47;5029498;28;1197;-59
2021/04/18 03:43:10;;;;;;;;;;;;;;;18.77;67.48;100804.53;5033381;28;1513;-60
2021/04/18 03:45:36;;;;;;;;;;;;;;;18.74;67.27;100815.50;5028427;28;1910;-56
2021/04/18 03:48:02;;;;;;;;;;;;;;;18.78;67.15;100800.88;5027124;28;1510;-59
2021/04/18 03:50:28;;;;;;;;;;;;;;;18.77;67.04;100800.03;5034481;28;1077;-59
2021/04/18 03:52:55;;;;;;;;;;;;;;;18.79;66.90;100800.78;5033893;28;1660;-57
2021/04/18 03:55:22;;;;;;;;;;;;;;;18.80;67.10;100794.44;5023477;28;1513;-59
2021/04/18 03:57:48;;;;;;;;;;;;;;;18.81;66.96;100808.69;5031762;28;1423;-57
2021/04/18 04:00:15;;;;;;;;;;;;;;;18.79;67.12;100808.81;5029912;28;1503;-59
2021/04/18 04:02:41;;;;;;;;;;;;;;;18.78;67.08;100809.78;5024218;28;1604;-56
2021/04/18 04:05:08;;;;;;;;;;;;;;;18.76;67.17;100806.38;5031930;28;1906;-56
2021/04/18 04:07:34;;;;;;;;;;;;;;;18.71;67.37;100799.72;5009640;28;1389;-59
2021/04/18 04:10:01;;;;;;;;;;;;;;;18.73;67.31;100813.81;5024357;28;1676;-59
2021/04/18 04:12:28;;;;;;;;;;;;;;;18.74;67.27;100826.22;5027139;28;1110;-59
2021/04/18 04:14:54;;;;;;;;;;;;;;;18.74;67.34;100836.94;5033192;28;1751;-59
2021/04/18 04:17:20;;;;;;;;;;;;;;;18.76;67.31;100834.97;5030404;28;1712;-60
2021/04/18 04:19:46;;;;;;;;;;;;;;;18.73;67.34;100829.91;5024282;28;1288;-56
2021/04/18 04:22:12;;;;;;;;;;;;;;;18.69;67.30;100822.13;5021932;28;1570;-59
2021/04/18 04:24:38;;;;;;;;;;;;;;;18.70;66.94;100831.00;5023172;28;1898;-56
2021/04/18 04:27:04;;;;;;;;;;;;;;;18.68;67.22;100817.75;5027573;28;1060;-59
2021/04/18 04:29:32;;;;;;;;;;;;;;;18.69;67.24;100823.94;5023963;28;1847;-59
2021/04/18 04:31:58;;;;;;;;;;;;;;;18.70;67.19;100833.66;5023995;28;1441;-59
2021/04/18 04:34:24;;;;;;;;;;;;;;;18.68;67.22;100825.78;5023695;28;1605;-60
2021/04/18 04:36:50;;;;;;;;;;;;;;;18.69;67.23;100835.50;5023761;28;1498;-59
2021/04/18 04:39:16;;;;;;;;;;;;;;;18.68;67.29;100830.28;5028489;28;1653;-56
2021/04/18 04:41:42;;;;;;;;;;;;;;;18.66;67.01;100846.50;5033390;28;1490;-56
2021/04/18 04:44:08;;;;;;;;;;;;;;;18.67;67.33;100836.63;5026295;28;1898;-56
2021/04/18 04:46:35;;;;;;;;;;;;;;;18.68;67.19;100828.47;5027367;28;1791;-59
2021/04/18 04:49:01;;;;;;;;;;;;;;;18.67;67.20;100837.47;5032442;28;1728;-59
2021/04/18 04:51:27;;;;;;;;;;;;;;;18.66;67.29;100838.47;5023687;28;1441;-56
2021/04/18 04:53:54;;;;;;;;;;;;;;;18.66;67.22;100825.06;5030129;28;1570;-56
2021/04/18 04:56:20;;;;;;;;;;;;;;;18.67;67.31;100824.06;5024860;28;1126;-57
2021/04/18 04:58:46;;;;;;;;;;;;;;;18.68;67.30;100831.16;5029078;28;1665;-59
2021/04/18 05:01:12;;;;;;;;;;;;;;;18.66;67.08;100830.44;5023455;28;1455;-56
2021/04/18 05:03:39;;;;;;;;;;;;;;;18.66;67.08;100833.09;5025429;28;1571;-56
2021/04/18 05:06:05;;;;;;;;;;;;;;;18.69;66.85;100834.66;5022138;28;1910;-56
2021/04/18 05:08:31;;;;;;;;;;;;;;;18.71;66.96;100831.88;5022840;28;1644;-59
2021/04/18 05:10:57;;;;;;;;;;;;;;;18.72;66.88;100838.91;5031764;28;1498;-59
2021/04/18 05:13:23;;;;;;;;;;;;;;;18.74;66.86;100837.81;5029707;28;1684;-59
2021/04/18 05:15:50;;;;;;;;;;;;;;;18.72;66.68;100839.78;5026130;28;1550;-60
2021/04/18 05:18:16;;;;;;;;;;;;;;;18.76;66.86;100846.56;5031275;28;1704;-56
2021/04/18 05:20:43;;;;;;;;;;;;;;;18.77;67.45;100839.38;5031755;28;1292;-60
2021/04/18 05:23:09;;;;;;;;;;;;;;;18.77;67.20;100832.16;5021668;28;1043;-56
2021/04/18 05:25:35;;;;;;;;;;;;;;;18.74;67.08;100834.25;5027188;28;1983;-57
2021/04/18 05:28:01;;;;;;;;;;;;;;;18.74;67.46;100842.28;5028402;28;1444;-60
2021/04/18 05:30:27;;;;;;;;;;;;;;;18.77;67.20;100831.34;5030177;28;1426;-63
2021/04/18 05:32:53;;;;;;;;;;;;;;;18.77;67.30;100825.97;5030555;28;1240;-63
2021/04/18 05:35:19;;;;;;;;;;;;;;;18.77;66.94;100821.47;5028069;28;1701;-56
2021/04/18 05:37:46;;;;;;;;;;;;;;;18.82;66.83;100829.13;5022516;28;1729;-63
2021/04/18 05:40:13;;;;;;;;;;;;;;;18.80;66.81;100826.59;5030550;28;1622;-68
2021/04/18 05:42:39;;;;;;;;;;;;;;;18.77;66.84;100837.53;5029922;28;1892;-67
2021/04/18 05:45:06;;;;;;;;;;;;;;;18.77;67.19;100825.97;5026585;28;1985;-61
2021/04/18 05:47:32;;;;;;;;;;;;;;;18.79;66.99;100810.63;5028935;28;1549;-56
2021/04/18 05:49:58;;;;;;;;;;;;;;;18.78;66.92;100816.94;5028865;28;1760;-58
2021/04/18 05:52:24;;;;;;;;;;;;;;;18.81;66.95;100812.19;5029720;28;1741;-57
2021/04/18 05:54:52;;;;;;;;;;;;;;;18.79;66.39;100813.28;5030937;28;1336;-55
2021/04/18 05:57:17;;;;;;;;;;;;;;;18.78;66.61;100819.63;5029516;28;1442;-61
2021/04/18 05:59:44;;;;;;;;;;;;;;;18.79;66.48;100815.97;5030012;28;1440;-59
2021/04/18 06:02:10;;;;;;;;;;;;;;;18.77;66.57;100826.81;5028472;28;1594;-60
2021/04/18 06:04:36;;;;;;;;;;;;;;;18.76;66.66;100835.84;5027994;28;1876;-56
2021/04/18 06:07:02;;;;;;;;;;;;;;;18.80;66.58;100815.00;5028877;28;1146;-59
2021/04/18 06:09:28;;;;;;;;;;;;;;;18.78;66.42;100824.97;5028611;28;1438;-66
2021/04/18 06:11:55;;;;;;;;;;;;;;;18.79;67.24;100816.84;5029317;28;1395;-57
2021/04/18 06:14:21;;;;;;;;;;;;;;;18.78;67.52;100835.69;5028700;28;1882;-57
2021/04/18 06:16:48;;;;;;;;;;;;;;;18.77;67.33;100821.47;5029158;28;1512;-56
2021/04/18 06:19:15;;;;;;;;;;;;;;;18.81;67.90;100816.72;5029033;28;1458;-57
2021/04/18 06:21:41;;;;;;;;;;;;;;;18.83;67.82;100823.63;5027915;28;1426;-56
2021/04/18 06:24:08;;;;;;;;;;;;;;;18.85;67.27;100829.72;5027059;28;1459;-57
2021/04/18 06:26:34;;;;;;;;;;;;;;;18.82;67.31;100821.94;5029982;28;1903;-59
2021/04/18 06:29:01;;;;;;;;;;;;;;;18.80;67.21;100820.38;5029144;28;1388;-59
2021/04/18 06:31:27;;;;;;;;;;;;;;;18.83;67.16;100825.47;5029118;28;1505;-58
2021/04/18 06:33:53;;;;;;;;;;;;;;;18.79;66.89;100819.53;5023752;28;1593;-58
2021/04/18 06:36:19;;;;;;;;;;;;;;;18.85;66.71;100824.34;5022920;28;1391;-56
2021/04/18 06:38:45;;;;;;;;;;;;;;;18.83;66.69;100825.47;5027625;28;1399;-59
2021/04/18 06:41:15;;;;;;;;;;;;;;;18.80;66.73;100818.56;5029088;28;1419;-56
2021/04/18 06:43:41;;;;;;;;;;;;;;;18.80;66.90;100831.97;5020282;28;1391;-57
2021/04/18 06:46:08;;;;;;;;;;;;;;;18.78;66.99;100838.38;5023631;28;1987;-58
2021/04/18 06:48:34;;;;;;;;;;;;;;;18.80;67.14;100836.44;5024077;28;1224;-58
2021/04/18 06:51:01;;;;;;;;;;;;;;;18.74;67.31;100845.84;5027768;28;1446;-58
2021/04/18 06:53:27;;;;;;;;;;;;;;;18.77;67.21;100848.25;5029244;28;1988;-57
2021/04/18 06:55:53;;;;;;;;;;;;;;;18.78;66.77;100855.31;5029097;28;1506;-56
2021/04/18 06:58:19;;;;;;;;;;;;;;;18.80;66.97;100863.22;5029290;28;1420;-59
2021/04/18 07:00:45;;;;;;;;;;;;;;;18.80;67.30;100842.66;5029517;28;1414;-61
2021/04/18 07:03:13;;;;;;;;;;;;;;;18.81;66.90;100855.06;5023026;28;1637;-65
2021/04/18 07:05:43;;;;;;;;;;;;;;;18.78;67.42;100854.44;5028828;28;1985;-58
2021/04/18 07:08:23;;;;;;;;;;;;;;;18.78;67.06;100851.75;5027859;28;1363;-57
2021/04/18 07:10:49;;;;;;;;;;;;;;;18.77;67.15;100847.41;5019601;28;1395;-59
2021/04/18 07:13:16;;;;;;;;;;;;;;;18.82;67.02;100855.91;5027048;28;1550;-58
2021/04/18 07:15:43;;;;;;;;;;;;;;;18.81;68.22;100855.06;5020909;28;1297;-60
2021/04/18 07:18:09;;;;;;;;;;;;;;;18.80;67.35;100844.47;5026965;28;1578;-56
2021/04/18 07:20:50;;;;;;;;;;;;;;;18.79;67.43;100850.81;5028787;28;1304;-59
2021/04/18 07:23:24;;;;;;;;;;;;;;;18.80;67.84;100863.22;5023301;28;1458;-57
2021/04/18 07:25:50;;;;;;;;;;;;;;;18.79;67.35;100846.31;5028631;28;1987;-66
2021/04/18 07:28:21;;;;;;;;;;;;;;;18.76;67.45;100861.75;5028632;28;1375;-68
2021/04/18 07:30:48;;;;;;;;;;;;;;;18.79;67.67;100861.53;5028456;28;1305;-58
2021/04/18 07:33:14;;;;;;;;;;;;;;;18.77;67.62;100866.16;5026571;28;1412;-56
2021/04/18 07:35:42;;;;;;;;;;;;;;;18.85;67.51;100879.78;5029516;28;1076;-61
2021/04/18 07:38:16;;;;;;;;;;;;;;;18.85;67.43;100882.44;5020489;28;1350;-59
2021/04/18 07:40:42;;;;;;;;;;;;;;;18.86;67.51;100874.28;5020527;28;1566;-59
2021/04/18 07:43:08;;;;;;;;;;;;;;;18.86;67.44;100878.78;5024273;28;1641;-57
2021/04/18 07:45:34;;;;;;;;;;;;;;;18.87;67.46;100877.81;5028054;28;1906;-56
2021/04/18 07:48:01;;;;;;;;;;;;;;;18.87;67.47;100877.81;5027039;28;1495;-58
2021/04/18 07:50:27;;;;;;;;;;;;;;;18.89;67.40;100883.88;5028372;28;1132;-60
2021/04/18 07:52:54;;;;;;;;;;;;;;;18.93;67.78;100901.41;5027342;28;1355;-59
2021/04/18 07:55:21;;;;;;;;;;;;;;;18.93;67.30;100884.47;5026584;28;1614;-60
2021/04/18 07:57:47;;;;;;;;;;;;;;;18.94;67.15;100887.03;5026315;28;1384;-56
2021/04/18 08:00:14;;;;;;;;;;;;;;;18.92;67.17;100886.31;5028272;28;998;-58
2021/04/18 08:02:40;;;;;;;;;;;;;;;18.92;66.92;100883.63;5027045;28;1495;-57
2021/04/18 08:05:08;;;;;;;;;;;;;;;18.94;67.26;100887.03;5028150;28;1902;-58
2021/04/18 08:07:54;;;;;;;;;;;;;;;18.96;67.15;100882.38;5018996;28;1478;-58
2021/04/18 08:10:25;;;;;;;;;;;;;;;18.96;67.17;100879.72;5025268;28;2036;-58
2021/04/18 08:13:04;;;;;;;;;;;;;;;18.96;66.97;100860.94;5024620;28;1161;-65
2021/04/18 08:15:31;;;;;;;;;;;;;;;19.00;66.73;100870.41;5027459;28;1141;-59
2021/04/18 08:18:04;;;;;;;;;;;;;;;19.02;67.05;100873.81;5022462;28;990;-60
2021/04/18 08:20:33;;;;;;;;;;;;;;;19.00;67.23;100858.81;5029006;28;1061;-60
2021/04/18 08:23:04;;;;;;;;;;;;;;;19.00;67.25;100859.69;5019361;28;1690;-59
2021/04/18 08:25:31;;;;;;;;;;;;;;;18.80;66.83;100831.09;5025398;28;1906;-59
2021/04/18 08:28:01;;;;;;;;;;;;;;;19.01;67.34;100845.31;5026509;28;1370;-59
2021/04/18 08:30:27;;;;;;;;;;;;;;;19.04;67.26;100857.59;5016579;28;1205;-59
2021/04/18 08:32:54;;;;;;;;;;;;;;;18.93;66.69;100871.91;5022907;28;1386;-59
2021/04/18 08:35:22;;;;;;;;;;;;;;;18.70;63.95;100860.47;5015281;28;1874;-59
2021/04/18 08:38:03;;;;;;;;;;;;;;;18.54;64.10;100847.53;5022704;28;1695;-59
2021/04/18 08:40:31;;;;;;;;;;;;;;;18.62;66.28;100855.78;5024457;28;1767;-61
2021/04/18 08:43:16;;;;;;;;;;;;;;;18.71;64.64;100840.75;5024048;28;1425;-61
2021/04/18 08:45:45;;;;;;;;;;;;;;;18.79;65.29;100835.59;5021369;28;2027;-58
2021/04/18 08:48:11;;;;;;;;;;;;;;;18.86;64.99;100860.91;5013742;28;1400;-60
2021/04/18 08:50:50;;;;;;;;;;;;;;;18.90;65.40;100861.47;5012864;28;1096;-62
2021/04/18 08:53:16;;;;;;;;;;;;;;;18.90;65.17;100858.81;5023169;28;1156;-58
2021/04/18 08:55:52;;;;;;;;;;;;;;;18.90;64.82;100861.47;5022539;28;1477;-59
2021/04/18 08:58:33;;;;;;;;;;;;;;;18.85;65.11;100867.22;5024214;28;1340;-60
2021/04/18 09:01:07;;;;;;;;;;;;;;;18.90;65.40;100856.13;5026365;28;1509;-62
2021/04/18 09:03:33;;;;;;;;;;;;;;;18.93;65.24;100852.31;5024781;28;1384;-59
2021/04/18 09:06:10;;;;;;;;;;;;;;;18.95;65.39;100867.28;5026967;28;1981;-59
2021/04/18 09:08:48;;;;;;;;;;;;;;;18.95;65.40;100869.13;5017672;28;1811;-58
2021/04/18 09:11:15;;;;;;;;;;;;;;;19.03;65.53;100871.97;5019765;28;1635;-59
2021/04/18 09:13:51;;;;;;;;;;;;;;;19.13;65.25;100858.63;5019068;28;1473;-62
2021/04/18 09:16:21;;;;;;;;;;;;;;;19.11;65.27;100864.13;5020017;28;1764;-59
2021/04/18 09:18:47;;;;;;;;;;;;;;;19.16;64.78;100847.63;5024319;28;1332;-59
2021/04/18 09:21:13;;;;;;;;;;;;;;;19.07;65.19;100839.41;5026779;28;1351;-57
2021/04/18 09:23:55;;;;;;;;;;;;;;;19.11;65.17;100847.19;5024635;28;1501;-59
2021/04/18 09:26:22;;;;;;;;;;;;;;;19.10;64.57;100834.75;5018113;28;1993;-60
2021/04/18 09:29:07;;;;;;;;;;;;;;;19.11;65.22;100831.09;5016572;28;1573;-66
2021/04/18 09:31:33;;;;;;;;;;;;;;;19.02;64.89;100824.69;5017921;28;1491;-60
2021/04/18 09:34:03;;;;;;;;;;;;;;;19.05;64.87;100827.13;5025391;28;1332;-72
2021/04/18 09:36:29;;;;;;;;;;;;;;;18.91;64.46;100814.94;5029072;28;1336;-62
2021/04/18 09:38:56;;;;;;;;;;;;;;;19.00;63.33;100832.03;5024521;28;1388;-65
2021/04/18 09:41:23;;;;;;;;;;;;;;;19.04;62.77;100828.97;5028462;28;1621;-62
2021/04/18 09:43:55;;;;;;;;;;;;;;;19.10;62.35;100816.00;5029193;28;1442;-62
2021/04/18 09:46:21;;;;;;;;;;;;;;;19.10;62.58;100818.66;5028565;28;1914;-63
2021/04/18 09:48:56;;;;;;;;;;;;;;;18.84;61.80;100816.44;5023485;28;1439;-57
2021/04/18 09:51:22;;;;;;;;;;;;;;;19.03;62.63;100821.06;5017745;28;1725;-65
2021/04/18 09:53:59;;;;;;;;;;;;;;;19.09;62.81;100820.50;5025794;28;1339;-59
2021/04/18 09:56:26;;;;;;;;;;;;;;;19.37;62.27;100829.63;5029307;28;1234;-58
2021/04/18 09:58:52;;;;;;;;;;;;;;;19.59;62.44;100823.19;5028107;28;1462;-60
2021/04/18 10:01:25;;;;;;;;;;;;;;;19.68;62.84;100824.22;5027716;28;1472;-60
2021/04/18 10:03:51;;;;;;;;;;;;;;;19.79;62.88;100834.00;5026798;28;1399;-56
2021/04/18 10:06:17;;;;;;;;;;;;;;;19.90;62.76;100846.47;5026473;28;1910;-58
2021/04/18 10:08:52;;;;;;;;;;;;;;;20.02;62.78;100845.34;5025832;28;1407;-59
2021/04/18 10:11:18;;;;;;;;;;;;;;;20.39;61.74;100852.69;5025743;28;1339;-59
2021/04/18 10:13:49;;;;;;;;;;;;;;;20.35;62.01;100843.22;5028639;28;1599;-58
2021/04/18 10:16:16;;;;;;;;;;;;;;;20.40;62.47;100841.78;5018473;28;1386;-61
2021/04/18 10:19:02;;;;;;;;;;;;;;;20.45;61.85;100841.34;5024693;28;1352;-60
2021/04/18 10:21:28;;;;;;;;;;;;;;;20.36;62.06;100842.22;5022088;28;1451;-58
2021/04/18 10:23:54;;;;;;;;;;;;;;;20.35;62.76;100848.59;5025731;28;1195;-60
2021/04/18 10:26:21;;;;;;;;;;;;;;;20.37;61.86;100834.03;5027480;28;1930;-65
2021/04/18 10:28:49;;;;;;;;;;;;;;;20.32;62.23;100830.09;5028910;28;1291;-66
2021/04/18 10:31:16;;;;;;;;;;;;;;;20.24;63.26;100831.63;5028491;28;1460;-69
2021/04/18 10:33:42;;;;;;;;;;;;;;;20.24;62.56;100834.31;5027365;28;1303;-69
2021/04/18 10:36:09;;;;;;;;;;;;;;;20.32;62.93;100838.97;5027415;28;1360;-64
2021/04/18 10:38:35;;;;;;;;;;;;;;;20.22;62.72;100838.97;5028588;28;1373;-66
2021/04/18 10:41:01;;;;;;;;;;;;;;;20.18;63.63;100840.25;5028694;28;1121;-63
2021/04/18 10:43:28;;;;;;;;;;;;;;;20.24;63.24;100844.22;5028295;28;1340;-70
2021/04/18 10:45:55;;;;;;;;;;;;;;;20.21;63.19;100853.41;5026838;28;1993;-61
2021/04/18 10:48:21;;;;;;;;;;;;;;;20.17;63.15;100859.19;5028108;28;1418;-59
2021/04/18 10:50:47;;;;;;;;;;;;;;;20.23;63.77;100853.25;5025783;28;1410;-62
2021/04/18 10:53:13;;;;;;;;;;;;;;;20.23;62.87;100847.88;5029476;28;1172;-59
2021/04/18 10:55:40;;;;;;;;;;;;;;;20.15;64.17;100851.25;5027129;28;1521;-58
2021/04/18 10:58:06;;;;;;;;;;;;;;;20.14;63.64;100854.13;5028877;28;1521;-61
2021/04/18 11:00:32;;;;;;;;;;;;;;;19.79;64.41;100844.75;5029473;28;1351;-64
2021/04/18 11:02:59;;;;;;;;;;;;;;;19.91;64.22;100864.25;5029849;28;1467;-65
2021/04/18 11:05:25;;;;;;;;;;;;;;;19.85;64.01;100861.13;5026725;28;2011;-59
2021/04/18 11:07:52;;;;;;;;;;;;;;;19.79;63.95;100861.69;5029853;28;1681;-58
2021/04/18 11:10:18;;;;;;;;;;;;;;;19.84;63.93;100872.84;5028773;28;1410;-60
2021/04/18 11:12:44;;;;;;;;;;;;;;;19.83;64.29;100867.63;5028619;28;1363;-60
2021/04/18 11:15:10;;;;;;;;;;;;;;;19.75;64.44;100849.53;5028184;28;1192;-60
2021/04/18 11:17:37;;;;;;;;;;;;;;;19.75;64.46;100859.41;5028145;28;1547;-60
2021/04/18 11:20:05;;;;;;;;;;;;;;;19.83;65.05;100863.09;5024252;28;1579;-63
2021/04/18 11:22:31;;;;;;;;;;;;;;;19.81;65.54;100848.97;5028633;28;1391;-60
2021/04/18 11:25:00;;;;;;;;;;;;;;;19.77;64.92;100874.38;5032848;28;1981;-61
2021/04/18 11:27:26;;;;;;;;;;;;;;;19.70;65.64;100850.94;5032705;28;1391;-60
2021/04/18 11:29:53;;;;;;;;;;;;;;;19.63;65.23;100859.50;5031380;28;1698;-59
2021/04/18 11:32:19;;;;;;;;;;;;;;;19.62;65.89;100867.69;5031020;28;1504;-58
2021/04/18 11:34:46;;;;;;;;;;;;;;;19.63;65.39;100862.19;5033058;28;1601;-56
2021/04/18 11:37:13;;;;;;;;;;;;;;;19.61;65.73;100864.16;5032534;28;1292;-58
2021/04/18 11:39:39;;;;;;;;;;;;;;;19.59;65.36;100865.28;5033799;28;1691;-57
2021/04/18 11:42:05;;;;;;;;;;;;;;;19.55;65.61;100856.66;5036290;28;1446;-60
2021/04/18 11:44:31;;;;;;;;;;;;;;;19.52;65.99;100856.06;5031179;28;1426;-60
2021/04/18 11:46:57;;;;;;;;;;;;;;;19.49;66.19;100851.84;5024041;28;1910;-61
2021/04/18 11:49:23;;;;;;;;;;;;;;;19.50;66.67;100844.63;5029585;28;1340;-61
2021/04/18 11:51:49;;;;;;;;;;;;;;;19.47;66.49;100843.91;5031544;28;1411;-59
2021/04/18 11:54:16;;;;;;;;;;;;;;;19.44;66.43;100830.81;5029824;28;1443;-58
2021/04/18 11:56:43;;;;;;;;;;;;;;;19.44;66.46;100829.97;5020226;28;1120;-59
2021/04/18 11:59:09;;;;;;;;;;;;;;;19.46;66.40;100844.09;5028306;28;1376;-59
2021/04/18 12:01:35;;;;;;;;;;;;;;;19.45;67.21;100832.47;5026900;28;1538;-60
2021/04/18 12:04:01;;;;;;;;;;;;;;;19.44;66.38;100830.81;5025493;28;1419;-64
2021/04/18 12:06:27;;;;;;;;;;;;;;;19.45;66.13;100819.06;5033227;28;1910;-57
2021/04/18 12:08:53;;;;;;;;;;;;;;;19.45;66.66;100811.03;5029731;28;1470;-58
2021/04/18 12:11:20;;;;;;;;;;;;;;;19.45;66.45;100829.81;5029474;28;1111;-62
2021/04/18 12:13:47;;;;;;;;;;;;;;;19.45;66.37;100831.66;5029764;28;1454;-57
2021/04/18 12:16:14;;;;;;;;;;;;;;;19.41;66.56;100825.69;5028728;28;1384;-62
2021/04/18 12:18:41;;;;;;;;;;;;;;;19.42;66.75;100824.72;5032568;28;1228;-61
2021/04/18 12:21:07;;;;;;;;;;;;;;;19.46;66.28;100817.25;5032113;28;1403;-58
2021/04/18 12:23:33;;;;;;;;;;;;;;;19.53;65.77;100828.28;5031591;28;1231;-59
2021/04/18 12:25:59;;;;;;;;;;;;;;;19.47;66.40;100822.47;5034507;28;1969;-59
2021/04/18 12:28:27;;;;;;;;;;;;;;;19.55;67.09;100820.94;5033021;28;1492;-60
2021/04/18 12:30:53;;;;;;;;;;;;;;;19.58;66.58;100821.53;5031265;28;1330;-61
2021/04/18 12:33:19;;;;;;;;;;;;;;;19.50;66.73;100826.72;5032563;28;1200;-58
2021/04/18 12:35:45;;;;;;;;;;;;;;;19.44;66.69;100822.75;5031953;28;1395;-60
2021/04/18 12:38:11;;;;;;;;;;;;;;;19.43;66.47;100828.25;5034472;28;1235;-62
2021/04/18 12:40:37;;;;;;;;;;;;;;;19.42;66.48;100822.03;5032360;28;1505;-59
2021/04/18 12:43:03;;;;;;;;;;;;;;;19.46;66.36;100828.84;5032760;28;1502;-58
2021/04/18 12:45:30;;;;;;;;;;;;;;;19.46;66.37;100834.19;5032688;28;1906;-59
2021/04/18 12:47:56;;;;;;;;;;;;;;;19.45;66.57;100828.97;5032206;28;1423;-59
2021/04/18 12:50:23;;;;;;;;;;;;;;;19.38;66.44;100831.34;5032374;28;1252;-59